createdAt,value
2018-12-07T00:02:06.695Z,12.10
2018-12-07T00:04:36.133Z,12.10
2018-12-07T00:07:05.556Z,12.10
2018-12-07T00:09:34.861Z,12.10
2018-12-07T00:12:04.340Z,12.10
2018-12-07T00:14:33.331Z,12.10
2018-12-07T00:17:03.098Z,12.10
2018-12-07T00:19:32.182Z,12.10
2018-12-07T00:22:01.268Z,12.10
2018-12-07T00:24:30.229Z,12.10
2018-12-07T00:26:59.466Z,12.20
2018-12-07T00:29:28.592Z,12.20
2018-12-07T00:31:57.668Z,12.20
2018-12-07T00:34:26.975Z,12.20
2018-12-07T00:36:56.563Z,12.20
2018-12-07T00:39:25.577Z,12.10
2018-12-07T00:41:54.692Z,12.10
2018-12-07T00:44:23.989Z,12.20
2018-12-07T00:46:53.229Z,12.20
2018-12-07T00:49:22.755Z,12.20
2018-12-07T00:51:52.284Z,12.10
2018-12-07T00:54:22.087Z,12.10
2018-12-07T00:56:51.335Z,12.10
2018-12-07T00:59:20.449Z,12.10
2018-12-07T01:01:49.523Z,12.10
2018-12-07T01:04:18.597Z,12.10
2018-12-07T01:06:47.863Z,12.10
2018-12-07T01:09:17.177Z,12.10
2018-12-07T01:11:46.402Z,12.10
2018-12-07T01:14:15.382Z,12.10
2018-12-07T01:16:45.786Z,12.10
2018-12-07T01:19:14.990Z,12.10
2018-12-07T01:21:45.125Z,12.10
2018-12-07T01:24:14.964Z,12.00
2018-12-07T01:26:44.342Z,12.10
2018-12-07T01:29:14.282Z,12.20
2018-12-07T01:31:43.255Z,12.20
2018-12-07T01:34:13.004Z,12.20
2018-12-07T01:36:51.994Z,12.30
2018-12-07T01:39:21.052Z,12.20
2018-12-07T01:41:50.449Z,12.30
2018-12-07T01:44:20.408Z,12.30
2018-12-07T01:46:49.782Z,12.30
2018-12-07T01:49:19.078Z,12.20
2018-12-07T01:51:48.560Z,12.30
2018-12-07T01:54:17.649Z,12.30
2018-12-07T01:56:46.676Z,12.30
2018-12-07T01:59:15.845Z,12.30
2018-12-07T02:01:45.050Z,12.20
2018-12-07T02:04:26.064Z,12.20
2018-12-07T02:06:55.286Z,12.20
2018-12-07T02:09:24.196Z,12.20
2018-12-07T02:11:53.383Z,12.20
2018-12-07T02:14:22.486Z,12.20
2018-12-07T02:16:51.616Z,12.20
2018-12-07T02:19:20.656Z,12.20
2018-12-07T02:21:51.869Z,12.20
2018-12-07T02:24:20.893Z,12.20
2018-12-07T02:26:50.409Z,11.90
2018-12-07T02:29:19.358Z,12.20
2018-12-07T02:31:48.459Z,12.20
2018-12-07T02:34:17.762Z,12.30
2018-12-07T02:36:46.731Z,12.30
2018-12-07T02:39:15.865Z,12.20
2018-12-07T02:41:45.197Z,12.20
2018-12-07T02:44:14.553Z,12.20
2018-12-07T02:46:44.196Z,12.20
2018-12-07T02:49:13.186Z,12.20
2018-12-07T02:51:42.221Z,12.20
2018-12-07T02:54:11.776Z,12.20
2018-12-07T02:56:40.874Z,12.20
2018-12-07T02:59:10.431Z,12.10
2018-12-07T03:01:45.669Z,12.20
2018-12-07T03:04:15.141Z,12.10
2018-12-07T03:06:44.400Z,12.20
2018-12-07T03:09:13.327Z,12.20
2018-12-07T03:11:42.625Z,12.20
2018-12-07T03:14:14.941Z,12.20
2018-12-07T03:16:43.969Z,12.20
2018-12-07T03:19:12.907Z,12.30
2018-12-07T03:21:42.417Z,12.30
2018-12-07T03:24:11.505Z,12.30
2018-12-07T03:26:40.785Z,12.30
2018-12-07T03:29:09.763Z,12.30
2018-12-07T03:31:39.174Z,12.30
2018-12-07T03:34:08.295Z,12.30
2018-12-07T03:36:37.591Z,12.30
2018-12-07T03:39:07.158Z,12.30
2018-12-07T03:41:39.763Z,12.30
2018-12-07T03:44:08.786Z,12.30
2018-12-07T03:46:37.906Z,12.30
2018-12-07T03:49:07.202Z,12.30
2018-12-07T03:51:36.529Z,12.40
2018-12-07T03:54:06.280Z,12.30
2018-12-07T03:56:35.489Z,12.30
2018-12-07T03:59:04.531Z,12.30
2018-12-07T04:01:33.770Z,12.40
2018-12-07T04:04:02.955Z,12.40
2018-12-07T04:06:31.925Z,12.40
2018-12-07T04:09:00.976Z,12.40
2018-12-07T04:11:30.071Z,12.20
2018-12-07T04:13:59.066Z,12.00
2018-12-07T04:16:28.300Z,11.90
2018-12-07T04:18:57.607Z,11.70
2018-12-07T04:21:26.589Z,11.60
2018-12-07T04:23:55.531Z,11.60
2018-12-07T04:26:25.040Z,11.50
2018-12-07T04:28:54.022Z,11.50
2018-12-07T04:31:23.136Z,11.50
2018-12-07T04:33:52.230Z,11.50
2018-12-07T04:36:21.911Z,11.40
2018-12-07T04:38:51.195Z,11.40
2018-12-07T04:41:20.369Z,11.40
2018-12-07T04:43:49.423Z,11.40
2018-12-07T04:46:18.397Z,11.40
2018-12-07T04:48:47.396Z,11.50
2018-12-07T04:51:16.449Z,11.50
2018-12-07T04:53:45.465Z,11.50
2018-12-07T04:56:14.704Z,11.60
2018-12-07T04:58:43.748Z,11.60
2018-12-07T05:01:12.813Z,11.70
2018-12-07T05:03:41.916Z,11.70
2018-12-07T05:06:11.124Z,11.60
2018-12-07T05:08:40.817Z,11.70
2018-12-07T05:11:09.838Z,11.70
2018-12-07T05:13:39.185Z,11.70
2018-12-07T05:16:08.181Z,11.70
2018-12-07T05:18:37.189Z,11.70
2018-12-07T05:21:06.424Z,11.80
2018-12-07T05:23:35.596Z,11.80
2018-12-07T05:26:04.807Z,11.80
2018-12-07T05:28:34.101Z,11.80
2018-12-07T05:31:04.162Z,11.80
2018-12-07T05:33:33.347Z,11.80
2018-12-07T05:36:02.581Z,11.80
2018-12-07T05:38:32.331Z,11.80
2018-12-07T05:41:01.594Z,11.70
2018-12-07T05:43:31.177Z,11.60
2018-12-07T05:46:00.219Z,11.50
2018-12-07T05:48:30.721Z,11.40
2018-12-07T05:50:59.830Z,11.30
2018-12-07T05:53:28.935Z,11.30
2018-12-07T05:55:58.235Z,11.20
2018-12-07T05:58:27.324Z,11.10
2018-12-07T06:00:57.530Z,11.10
2018-12-07T06:03:26.765Z,11.10
2018-12-07T06:05:58.136Z,11.00
2018-12-07T06:08:28.376Z,11.00
2018-12-07T06:10:58.915Z,11.00
2018-12-07T06:13:27.917Z,11.00
2018-12-07T06:15:57.426Z,11.00
2018-12-07T06:18:26.588Z,11.00
2018-12-07T06:20:55.615Z,11.00
2018-12-07T06:23:25.697Z,11.00
2018-12-07T06:25:55.098Z,11.10
2018-12-07T06:28:24.332Z,11.10
2018-12-07T06:30:53.571Z,11.10
2018-12-07T06:33:22.864Z,11.00
2018-12-07T06:35:52.143Z,11.00
2018-12-07T06:38:21.695Z,11.00
2018-12-07T06:40:51.021Z,10.90
2018-12-07T06:43:20.438Z,11.00
2018-12-07T06:45:49.753Z,11.00
2018-12-07T06:48:18.939Z,11.10
2018-12-07T06:50:48.292Z,11.10
2018-12-07T06:53:17.397Z,11.10
2018-12-07T06:55:46.738Z,11.20
2018-12-07T06:58:15.998Z,11.20
2018-12-07T07:00:45.735Z,11.20
2018-12-07T07:03:15.243Z,11.20
2018-12-07T07:05:44.702Z,11.20
2018-12-07T07:08:15.022Z,11.20
2018-12-07T07:10:44.319Z,11.20
2018-12-07T07:13:14.655Z,11.20
2018-12-07T07:15:44.131Z,11.20
2018-12-07T07:18:13.595Z,11.30
2018-12-07T07:20:43.022Z,11.30
2018-12-07T07:23:12.465Z,11.30
2018-12-07T07:25:41.808Z,11.40
2018-12-07T07:28:11.132Z,11.30
2018-12-07T07:30:40.400Z,11.30
2018-12-07T07:33:09.502Z,11.30
2018-12-07T07:35:38.895Z,11.30
2018-12-07T07:38:08.278Z,11.30
2018-12-07T07:40:37.373Z,11.20
2018-12-07T07:43:06.458Z,11.20
2018-12-07T07:45:35.677Z,11.20
2018-12-07T07:48:04.994Z,11.30
2018-12-07T07:50:33.989Z,11.30
2018-12-07T07:53:03.152Z,11.30
2018-12-07T07:55:32.276Z,11.30
2018-12-07T07:58:01.488Z,11.30
2018-12-07T08:00:30.654Z,11.30
2018-12-07T08:03:00.037Z,11.30
2018-12-07T08:05:29.401Z,11.30
2018-12-07T08:07:58.755Z,11.30
2018-12-07T08:10:28.175Z,11.30
2018-12-07T08:12:58.776Z,11.30
2018-12-07T08:15:28.415Z,11.40
2018-12-07T08:17:57.786Z,11.40
2018-12-07T08:20:26.928Z,11.40
2018-12-07T08:22:56.113Z,11.50
2018-12-07T08:25:32.115Z,11.50
2018-12-07T08:28:01.300Z,11.50
2018-12-07T08:30:30.534Z,11.50
2018-12-07T08:33:00.057Z,11.50
2018-12-07T08:35:29.477Z,11.60
2018-12-07T08:37:58.803Z,11.60
2018-12-07T08:40:28.111Z,11.60
2018-12-07T08:42:57.379Z,11.70
2018-12-07T08:45:27.212Z,11.70
2018-12-07T08:47:56.402Z,11.70
2018-12-07T08:50:25.655Z,11.80
2018-12-07T08:52:54.729Z,11.80
2018-12-07T08:55:24.587Z,11.90
2018-12-07T08:57:53.547Z,11.90
2018-12-07T09:00:23.336Z,11.80
2018-12-07T09:02:52.392Z,11.80
2018-12-07T09:05:21.406Z,11.80
2018-12-07T09:07:50.513Z,11.90
2018-12-07T09:10:19.811Z,11.80
2018-12-07T09:12:49.037Z,11.80
2018-12-07T09:15:18.170Z,11.80
2018-12-07T09:17:48.759Z,11.80
2018-12-07T09:20:19.527Z,11.90
2018-12-07T09:22:48.749Z,11.90
2018-12-07T09:25:18.401Z,11.90
2018-12-07T09:27:47.397Z,11.90
2018-12-07T09:30:16.660Z,11.90
2018-12-07T09:32:45.663Z,11.90
2018-12-07T09:35:15.121Z,11.80
2018-12-07T09:37:44.347Z,11.90
2018-12-07T09:40:13.703Z,11.90
2018-12-07T09:42:43.188Z,11.80
2018-12-07T09:45:12.647Z,11.80
2018-12-07T09:47:41.859Z,11.80
2018-12-07T09:50:11.110Z,11.80
2018-12-07T09:52:40.485Z,11.80
2018-12-07T09:55:09.857Z,11.80
2018-12-07T09:57:39.093Z,11.70
2018-12-07T10:00:08.505Z,11.70
2018-12-07T10:02:37.512Z,11.70
2018-12-07T10:05:08.641Z,11.60
2018-12-07T10:07:38.442Z,11.60
2018-12-07T10:10:08.114Z,11.60
2018-12-07T10:12:39.041Z,11.50
2018-12-07T10:15:08.278Z,11.50
2018-12-07T10:17:37.432Z,11.50
2018-12-07T10:20:06.709Z,11.50
2018-12-07T10:22:35.848Z,11.50
2018-12-07T10:25:05.620Z,11.50
2018-12-07T10:27:35.072Z,11.50
2018-12-07T10:30:05.252Z,11.60
2018-12-07T10:32:34.569Z,11.60
2018-12-07T10:35:04.250Z,11.60
2018-12-07T10:37:33.416Z,11.60
2018-12-07T10:40:02.738Z,11.60
2018-12-07T10:42:32.236Z,11.70
2018-12-07T10:45:04.298Z,11.70
2018-12-07T10:47:33.509Z,11.70
2018-12-07T10:50:02.842Z,11.80
2018-12-07T10:52:32.249Z,11.80
2018-12-07T10:55:01.663Z,11.80
2018-12-07T10:57:31.029Z,11.80
2018-12-07T11:00:00.027Z,11.90
2018-12-07T11:02:34.515Z,11.90
2018-12-07T11:05:09.343Z,11.90
2018-12-07T11:07:43.855Z,11.90
2018-12-07T11:10:20.284Z,11.90
2018-12-07T11:12:54.703Z,11.90
2018-12-07T11:17:34.957Z,11.90
2018-12-07T11:20:10.060Z,11.80
2018-12-07T11:22:44.626Z,11.80
2018-12-07T11:25:19.423Z,11.80
2018-12-07T11:27:53.941Z,11.70
2018-12-07T11:30:30.685Z,11.60
2018-12-07T11:33:06.244Z,11.50
2018-12-07T11:35:37.881Z,11.40
2018-12-07T11:38:07.543Z,11.30
2018-12-07T11:40:36.589Z,11.20
2018-12-07T11:43:05.817Z,11.10
2018-12-07T11:45:34.931Z,10.90
2018-12-07T11:48:04.085Z,10.90
2018-12-07T11:50:33.297Z,10.80
2018-12-07T11:53:02.505Z,10.70
2018-12-07T11:55:32.226Z,10.70
2018-12-07T11:58:01.656Z,10.60
2018-12-07T12:00:30.995Z,10.50
2018-12-07T12:03:00.240Z,10.50
2018-12-07T12:05:29.507Z,10.50
2018-12-07T12:07:58.804Z,10.50
2018-12-07T12:10:28.125Z,10.40
2018-12-07T12:12:57.261Z,10.40
2018-12-07T12:15:27.310Z,10.40
2018-12-07T12:17:56.558Z,10.30
2018-12-07T12:20:25.759Z,10.30
2018-12-07T12:22:55.302Z,10.30
2018-12-07T12:25:24.436Z,10.30
2018-12-07T12:27:53.429Z,10.30
2018-12-07T12:30:22.539Z,10.30
2018-12-07T12:32:51.741Z,10.30
2018-12-07T12:35:21.601Z,10.30
2018-12-07T12:37:50.900Z,10.30
2018-12-07T12:40:20.216Z,10.20
2018-12-07T12:42:50.914Z,10.30
2018-12-07T12:45:20.216Z,10.30
2018-12-07T12:47:49.320Z,10.20
2018-12-07T12:50:24.131Z,10.30
2018-12-07T12:52:53.862Z,10.30
2018-12-07T12:55:22.973Z,10.30
2018-12-07T12:57:52.417Z,10.30
2018-12-07T13:00:21.614Z,10.20
2018-12-07T13:02:50.960Z,10.30
2018-12-07T13:05:26.437Z,10.30
2018-12-07T13:08:02.569Z,10.30
2018-12-07T13:10:31.780Z,10.30
2018-12-07T13:13:01.388Z,10.30
2018-12-07T13:15:30.585Z,10.30
2018-12-07T13:17:59.609Z,10.30
2018-12-07T13:20:28.660Z,10.30
2018-12-07T13:23:00.212Z,10.30
2018-12-07T13:25:29.473Z,10.30
2018-12-07T13:27:58.682Z,10.20
2018-12-07T13:30:27.877Z,10.20
2018-12-07T13:32:57.079Z,10.20
2018-12-07T13:35:26.425Z,10.10
2018-12-07T13:37:55.685Z,10.10
2018-12-07T13:40:25.171Z,10.10
2018-12-07T13:42:54.472Z,10.10
2018-12-07T13:45:24.040Z,10.10
2018-12-07T13:47:53.301Z,10.10
2018-12-07T13:50:27.936Z,10.10
2018-12-07T13:52:57.885Z,10.10
2018-12-07T13:55:27.560Z,10.10
2018-12-07T13:57:56.898Z,10.10
2018-12-07T14:00:26.310Z,10.10
2018-12-07T14:02:55.722Z,10.20
2018-12-07T14:05:32.037Z,10.20
2018-12-07T14:07:56.444Z,10.20
2018-12-07T14:10:25.948Z,10.20
2018-12-07T14:12:55.212Z,10.20
2018-12-07T14:15:24.439Z,10.20
2018-12-07T14:17:53.560Z,10.20
2018-12-07T14:20:22.907Z,10.20
2018-12-07T14:22:52.206Z,10.30
2018-12-07T14:25:22.620Z,10.30
2018-12-07T14:27:51.968Z,10.20
2018-12-07T14:30:21.129Z,10.30
2018-12-07T14:32:50.930Z,10.30
2018-12-07T14:35:22.217Z,10.30
2018-12-07T14:37:52.112Z,10.30
2018-12-07T14:40:21.745Z,10.30
2018-12-07T14:42:51.154Z,10.30
2018-12-07T14:45:21.047Z,10.30
2018-12-07T14:47:50.250Z,10.40
2018-12-07T14:50:19.860Z,10.40
2018-12-07T14:52:49.401Z,10.50
2018-12-07T14:55:18.785Z,10.50
2018-12-07T14:57:48.668Z,10.60
2018-12-07T15:00:18.473Z,10.70
2018-12-07T15:02:47.739Z,10.80
2018-12-07T15:05:17.558Z,10.90
2018-12-07T15:07:47.083Z,10.90
2018-12-07T15:10:17.242Z,11.00
2018-12-07T15:12:48.109Z,11.00
2018-12-07T15:15:17.470Z,11.10
2018-12-07T15:17:47.059Z,11.00
2018-12-07T15:20:16.529Z,11.00
2018-12-07T15:22:46.394Z,10.90
2018-12-07T15:25:15.760Z,10.90
2018-12-07T15:27:44.982Z,11.00
2018-12-07T15:30:14.357Z,11.00
2018-12-07T15:32:43.780Z,11.00
2018-12-07T15:35:14.558Z,11.00
2018-12-07T15:37:43.792Z,11.10
2018-12-07T15:40:13.123Z,11.10
2018-12-07T15:42:42.333Z,11.10
2018-12-07T15:45:11.840Z,11.10
2018-12-07T15:47:41.164Z,11.00
2018-12-07T15:50:11.318Z,11.00
2018-12-07T15:52:40.677Z,11.00
2018-12-07T15:55:09.743Z,11.10
2018-12-07T15:57:38.786Z,11.00
2018-12-07T16:00:09.236Z,11.10
2018-12-07T16:02:39.236Z,11.10
2018-12-07T16:05:09.086Z,11.10
2018-12-07T16:07:39.724Z,11.10
2018-12-07T16:10:09.270Z,11.10
2018-12-07T16:12:38.824Z,11.10
2018-12-07T16:15:08.510Z,11.00
2018-12-07T16:17:38.026Z,10.90
2018-12-07T16:20:11.663Z,10.80
2018-12-07T16:22:41.499Z,10.80
2018-12-07T16:25:11.242Z,10.80
2018-12-07T16:27:40.612Z,10.90
2018-12-07T16:30:10.629Z,10.90
2018-12-07T16:32:40.353Z,11.00
2018-12-07T16:35:09.741Z,11.00
2018-12-07T16:37:39.245Z,11.00
2018-12-07T16:40:09.403Z,11.00
2018-12-07T16:42:38.920Z,11.00
2018-12-07T16:45:08.780Z,11.00
2018-12-07T16:47:38.328Z,11.00
2018-12-07T16:50:07.985Z,11.00
2018-12-07T16:52:37.330Z,10.90
2018-12-07T16:55:06.734Z,10.80
2018-12-07T16:57:35.949Z,10.60
2018-12-07T17:00:05.709Z,10.50
2018-12-07T17:02:35.202Z,10.40
2018-12-07T17:05:05.303Z,10.40
2018-12-07T17:07:34.527Z,10.40
2018-12-07T17:10:04.786Z,10.30
2018-12-07T17:12:35.137Z,10.20
2018-12-07T17:15:05.060Z,10.20
2018-12-07T17:17:34.433Z,10.10
2018-12-07T17:20:04.296Z,10.10
2018-12-07T17:22:33.529Z,10.00
2018-12-07T17:25:02.680Z,9.80
2018-12-07T17:27:31.911Z,9.70
2018-12-07T17:30:01.929Z,9.60
2018-12-07T17:32:31.340Z,9.50
2018-12-07T17:35:00.955Z,9.50
2018-12-07T17:37:30.682Z,9.40
2018-12-07T17:40:00.212Z,9.40
2018-12-07T17:42:29.725Z,9.40
2018-12-07T17:44:59.828Z,9.30
2018-12-07T17:47:29.031Z,9.30
2018-12-07T17:49:58.296Z,9.30
2018-12-07T17:52:27.686Z,9.30
2018-12-07T17:54:56.991Z,9.30
2018-12-07T17:57:26.136Z,9.20
2018-12-07T17:59:55.345Z,9.20
2018-12-07T18:02:25.106Z,9.20
2018-12-07T18:04:54.704Z,9.10
2018-12-07T18:07:24.277Z,9.10
2018-12-07T18:09:53.586Z,9.10
2018-12-07T18:12:22.836Z,9.10
2018-12-07T18:14:52.022Z,9.10
2018-12-07T18:17:23.339Z,9.10
2018-12-07T18:19:53.007Z,9.10
2018-12-07T18:22:22.479Z,9.10
2018-12-07T18:24:52.076Z,9.10
2018-12-07T18:27:21.773Z,9.10
2018-12-07T18:29:51.056Z,9.10
2018-12-07T18:32:20.593Z,9.10
2018-12-07T18:34:50.460Z,9.10
2018-12-07T18:37:19.998Z,9.10
2018-12-07T18:39:49.391Z,9.10
2018-12-07T18:42:19.849Z,9.10
2018-12-07T18:44:49.128Z,9.10
2018-12-07T18:47:18.449Z,9.10
2018-12-07T18:49:48.339Z,9.10
2018-12-07T18:52:17.759Z,9.00
2018-12-07T18:54:47.014Z,9.00
2018-12-07T18:57:16.192Z,9.10
2018-12-07T18:59:45.204Z,9.10
2018-12-07T19:02:14.534Z,9.10
2018-12-07T19:04:43.802Z,9.10
2018-12-07T19:07:13.400Z,9.10
2018-12-07T19:09:42.651Z,9.10
2018-12-07T19:12:12.368Z,9.10
2018-12-07T19:14:41.579Z,9.10
2018-12-07T19:17:11.023Z,9.10
2018-12-07T19:19:40.447Z,9.10
2018-12-07T19:22:09.705Z,9.10
2018-12-07T19:24:38.870Z,9.10
2018-12-07T19:27:08.004Z,9.10
2018-12-07T19:29:37.416Z,9.10
2018-12-07T19:32:06.716Z,9.10
2018-12-07T19:34:36.103Z,9.10
2018-12-07T19:37:05.562Z,9.10
2018-12-07T19:39:35.019Z,9.10
2018-12-07T19:42:04.121Z,9.10
2018-12-07T19:44:33.422Z,9.10
2018-12-07T19:47:02.678Z,9.10
2018-12-07T19:49:32.213Z,9.00
2018-12-07T19:52:01.687Z,9.00
2018-12-07T19:54:31.722Z,8.90
2018-12-07T19:57:01.173Z,8.90
2018-12-07T19:59:30.349Z,9.00
2018-12-07T20:01:59.849Z,9.00
2018-12-07T20:04:28.941Z,8.90
2018-12-07T20:06:58.247Z,8.90
2018-12-07T20:09:27.381Z,8.90
2018-12-07T20:11:56.626Z,8.90
2018-12-07T20:14:25.620Z,8.80
2018-12-07T20:16:55.448Z,8.70
2018-12-07T20:19:24.613Z,8.50
2018-12-07T20:21:54.263Z,8.40
2018-12-07T20:24:23.833Z,8.30
2018-12-07T20:26:53.286Z,8.20
2018-12-07T20:29:23.339Z,8.00
2018-12-07T20:31:52.542Z,8.00
2018-12-07T20:34:21.654Z,7.90
2018-12-07T20:36:51.283Z,7.90
2018-12-07T20:39:21.161Z,7.90
2018-12-07T20:41:50.526Z,7.90
2018-12-07T20:44:20.454Z,7.90
2018-12-07T20:46:49.636Z,7.90
2018-12-07T20:49:19.330Z,7.80
2018-12-07T20:51:48.780Z,7.80
2018-12-07T20:54:18.114Z,7.70
2018-12-07T20:56:48.620Z,7.70
2018-12-07T20:59:17.735Z,7.60
2018-12-07T21:01:51.642Z,7.50
2018-12-07T21:04:27.482Z,7.40
2018-12-07T21:07:43.361Z,7.30
2018-12-07T21:10:46.891Z,7.20
2018-12-07T21:13:33.720Z,7.10
2018-12-07T21:18:15.282Z,7.00
2018-12-07T21:20:44.319Z,6.90
2018-12-07T21:23:13.701Z,6.70
2018-12-07T21:25:42.939Z,6.70
2018-12-07T21:28:12.149Z,6.60
2018-12-07T21:30:55.487Z,6.50
2018-12-07T21:33:40.208Z,6.40
2018-12-07T21:36:33.608Z,6.40
2018-12-07T21:39:04.058Z,6.30
2018-12-07T21:41:33.304Z,6.30
2018-12-07T21:44:02.871Z,6.20
2018-12-07T21:46:32.184Z,6.30
2018-12-07T21:49:01.596Z,6.30
2018-12-07T21:51:45.831Z,6.20
2018-12-07T21:54:15.078Z,6.10
2018-12-07T21:56:44.418Z,6.10
2018-12-07T21:59:14.102Z,6.10
2018-12-07T22:01:43.658Z,6.20
2018-12-07T22:04:13.166Z,6.20
2018-12-07T22:06:42.408Z,6.10
2018-12-07T22:09:12.224Z,6.20
2018-12-07T22:11:41.733Z,6.20
2018-12-07T22:14:11.257Z,6.20
2018-12-07T22:16:40.340Z,6.20
2018-12-07T22:19:09.433Z,6.20
2018-12-07T22:21:38.808Z,6.20
2018-12-07T22:24:07.832Z,6.20
2018-12-07T22:26:37.011Z,6.20
2018-12-07T22:29:06.651Z,6.10
2018-12-07T22:31:36.154Z,6.10
2018-12-07T22:34:05.717Z,6.20
2018-12-07T22:36:35.178Z,6.20
2018-12-07T22:39:07.300Z,6.20
2018-12-07T22:41:37.058Z,6.30
2018-12-07T22:44:06.408Z,6.20
2018-12-07T22:46:35.735Z,6.30
2018-12-07T22:49:04.893Z,6.30
2018-12-07T22:51:34.240Z,6.40
2018-12-07T22:54:03.502Z,6.40
2018-12-07T22:56:32.956Z,6.50
2018-12-07T22:59:02.733Z,6.60
2018-12-07T23:01:32.057Z,6.70
2018-12-07T23:04:01.076Z,6.60
2018-12-07T23:06:30.395Z,6.50
2018-12-07T23:08:59.478Z,6.40
2018-12-07T23:11:28.559Z,6.30
2018-12-07T23:13:58.056Z,6.20
2018-12-07T23:16:27.470Z,6.00
2018-12-07T23:18:56.802Z,5.90
2018-12-07T23:21:26.857Z,5.80
2018-12-07T23:23:55.973Z,5.80
2018-12-07T23:26:25.601Z,5.90
2018-12-07T23:28:54.896Z,5.90
2018-12-07T23:31:24.138Z,5.90
2018-12-07T23:33:53.501Z,5.90
2018-12-07T23:36:22.852Z,5.90
2018-12-07T23:38:52.129Z,5.90
2018-12-07T23:41:21.359Z,5.80
2018-12-07T23:43:50.711Z,5.70
2018-12-07T23:46:19.722Z,5.60
2018-12-07T23:48:49.325Z,5.40
2018-12-07T23:51:18.580Z,5.30
2018-12-07T23:53:47.826Z,5.20
2018-12-07T23:56:17.023Z,5.10
2018-12-07T23:58:46.079Z,5.00
